sensor_id;sensor_type;location;lat;lon;timestamp;P1;durP1;ratioP1;P2;durP2;ratioP2
42260;SDS011;27926;48.062;7.474;2022-09-20T00:01:02;7.00;;;1.25;;
42260;SDS011;27926;48.062;7.474;2022-09-20T00:03:27;2.05;;;1.00;;
42260;SDS011;27926;48.062;7.474;2022-09-20T00:05:51;1.77;;;0.80;;
42260;SDS011;27926;48.062;7.474;2022-09-20T00:08:16;3.88;;;1.27;;
42260;SDS011;27926;48.062;7.474;2022-09-20T00:10:41;3.17;;;1.08;;
42260;SDS011;27926;48.062;7.474;2022-09-20T00:13:07;6.70;;;0.90;;
42260;SDS011;27926;48.062;7.474;2022-09-20T00:15:38;1.95;;;1.05;;
42260;SDS011;27926;48.062;7.474;2022-09-20T00:18:23;1.17;;;0.75;;
42260;SDS011;27926;48.062;7.474;2022-09-20T00:20:48;2.88;;;0.93;;
42260;SDS011;27926;48.062;7.474;2022-09-20T00:23:14;5.18;;;1.42;;
42260;SDS011;27926;48.062;7.474;2022-09-20T00:25:39;2.23;;;1.17;;
42260;SDS011;27926;48.062;7.474;2022-09-20T00:28:04;2.30;;;0.95;;
42260;SDS011;27926;48.062;7.474;2022-09-20T00:30:30;5.45;;;1.23;;
42260;SDS011;27926;48.062;7.474;2022-09-20T00:35:20;3.22;;;0.82;;
42260;SDS011;27926;48.062;7.474;2022-09-20T00:37:45;2.22;;;0.80;;
42260;SDS011;27926;48.062;7.474;2022-09-20T00:40:13;9.13;;;0.85;;
42260;SDS011;27926;48.062;7.474;2022-09-20T00:42:43;3.05;;;0.90;;
42260;SDS011;27926;48.062;7.474;2022-09-20T00:53:17;6.80;;;1.37;;
42260;SDS011;27926;48.062;7.474;2022-09-20T00:55:49;1.92;;;1.15;;
42260;SDS011;27926;48.062;7.474;2022-09-20T00:58:25;3.30;;;1.48;;
42260;SDS011;27926;48.062;7.474;2022-09-20T01:00:52;5.18;;;1.25;;
42260;SDS011;27926;48.062;7.474;2022-09-20T01:03:18;5.03;;;1.58;;
42260;SDS011;27926;48.062;7.474;2022-09-20T01:05:45;2.22;;;1.00;;
42260;SDS011;27926;48.062;7.474;2022-09-20T01:08:10;3.70;;;1.38;;
42260;SDS011;27926;48.062;7.474;2022-09-20T01:10:35;5.17;;;1.40;;
42260;SDS011;27926;48.062;7.474;2022-09-20T01:13:01;2.23;;;1.50;;
42260;SDS011;27926;48.062;7.474;2022-09-20T01:15:26;3.65;;;1.40;;
42260;SDS011;27926;48.062;7.474;2022-09-20T01:17:55;2.85;;;1.15;;
42260;SDS011;27926;48.062;7.474;2022-09-20T01:20:33;5.57;;;1.00;;
42260;SDS011;27926;48.062;7.474;2022-09-20T01:28:29;8.00;;;1.42;;
42260;SDS011;27926;48.062;7.474;2022-09-20T01:34:06;4.93;;;1.42;;
42260;SDS011;27926;48.062;7.474;2022-09-20T01:36:44;5.00;;;1.67;;
42260;SDS011;27926;48.062;7.474;2022-09-20T01:41:43;3.05;;;1.42;;
42260;SDS011;27926;48.062;7.474;2022-09-20T01:55:36;1.80;;;1.10;;
42260;SDS011;27926;48.062;7.474;2022-09-20T01:58:10;2.83;;;0.98;;
42260;SDS011;27926;48.062;7.474;2022-09-20T02:09:10;9.13;;;1.80;;
42260;SDS011;27926;48.062;7.474;2022-09-20T02:17:41;2.13;;;1.02;;
42260;SDS011;27926;48.062;7.474;2022-09-20T02:26:04;5.05;;;1.52;;
42260;SDS011;27926;48.062;7.474;2022-09-20T02:37:34;1.98;;;0.93;;
42260;SDS011;27926;48.062;7.474;2022-09-20T02:40:14;4.15;;;1.25;;
42260;SDS011;27926;48.062;7.474;2022-09-20T02:42:56;2.15;;;1.02;;
42260;SDS011;27926;48.062;7.474;2022-09-20T02:45:51;3.05;;;0.90;;
42260;SDS011;27926;48.062;7.474;2022-09-20T02:48:26;5.40;;;0.93;;
42260;SDS011;27926;48.062;7.474;2022-09-20T02:51:10;4.90;;;1.33;;
42260;SDS011;27926;48.062;7.474;2022-09-20T02:53:49;8.30;;;0.93;;
42260;SDS011;27926;48.062;7.474;2022-09-20T02:59:16;2.05;;;0.70;;
42260;SDS011;27926;48.062;7.474;2022-09-20T03:07:34;2.67;;;0.90;;
42260;SDS011;27926;48.062;7.474;2022-09-20T03:10:21;6.88;;;1.10;;
42260;SDS011;27926;48.062;7.474;2022-09-20T03:13:13;5.80;;;1.13;;
42260;SDS011;27926;48.062;7.474;2022-09-20T03:18:33;2.88;;;1.10;;
42260;SDS011;27926;48.062;7.474;2022-09-20T03:41:48;3.03;;;1.40;;
42260;SDS011;27926;48.062;7.474;2022-09-20T03:44:52;0.80;;;0.60;;
42260;SDS011;27926;48.062;7.474;2022-09-20T03:56:00;2.35;;;1.00;;
42260;SDS011;27926;48.062;7.474;2022-09-20T04:03:32;6.05;;;1.50;;
42260;SDS011;27926;48.062;7.474;2022-09-20T04:06:17;4.47;;;0.90;;
42260;SDS011;27926;48.062;7.474;2022-09-20T04:09:08;3.03;;;1.00;;
42260;SDS011;27926;48.062;7.474;2022-09-20T04:25:59;1.20;;;0.77;;
42260;SDS011;27926;48.062;7.474;2022-09-20T04:28:45;1.45;;;1.00;;
42260;SDS011;27926;48.062;7.474;2022-09-20T04:31:19;10.55;;;1.67;;
42260;SDS011;27926;48.062;7.474;2022-09-20T04:33:48;2.50;;;0.95;;
42260;SDS011;27926;48.062;7.474;2022-09-20T04:36:34;1.70;;;1.00;;
42260;SDS011;27926;48.062;7.474;2022-09-20T04:48:31;2.50;;;0.90;;
42260;SDS011;27926;48.062;7.474;2022-09-20T04:59:43;3.10;;;1.02;;
42260;SDS011;27926;48.062;7.474;2022-09-20T05:31:05;1.33;;;0.88;;
42260;SDS011;27926;48.062;7.474;2022-09-20T05:41:58;5.97;;;1.55;;
42260;SDS011;27926;48.062;7.474;2022-09-20T05:47:33;2.47;;;1.08;;
42260;SDS011;27926;48.062;7.474;2022-09-20T05:52:58;2.28;;;1.17;;
42260;SDS011;27926;48.062;7.474;2022-09-20T05:55:50;3.10;;;1.50;;
42260;SDS011;27926;48.062;7.474;2022-09-20T05:58:43;2.83;;;1.30;;
42260;SDS011;27926;48.062;7.474;2022-09-20T06:01:25;2.70;;;1.23;;
42260;SDS011;27926;48.062;7.474;2022-09-20T06:09:28;2.70;;;1.52;;
42260;SDS011;27926;48.062;7.474;2022-09-20T06:14:56;0.98;;;0.85;;
42260;SDS011;27926;48.062;7.474;2022-09-20T06:17:31;1.90;;;0.98;;
42260;SDS011;27926;48.062;7.474;2022-09-20T06:20:10;6.85;;;1.73;;
42260;SDS011;27926;48.062;7.474;2022-09-20T06:22:53;4.47;;;1.23;;
42260;SDS011;27926;48.062;7.474;2022-09-20T06:25:22;1.88;;;1.23;;
42260;SDS011;27926;48.062;7.474;2022-09-20T06:27:59;3.90;;;1.40;;
42260;SDS011;27926;48.062;7.474;2022-09-20T06:30:36;5.50;;;1.45;;
42260;SDS011;27926;48.062;7.474;2022-09-20T06:36:32;4.53;;;1.30;;
42260;SDS011;27926;48.062;7.474;2022-09-20T06:38:45;5.07;;;1.90;;
42260;SDS011;27926;48.062;7.474;2022-09-20T06:41:31;2.87;;;1.53;;
42260;SDS011;27926;48.062;7.474;2022-09-20T06:43:58;13.82;;;2.72;;
42260;SDS011;27926;48.062;7.474;2022-09-20T06:46:30;9.13;;;2.33;;
42260;SDS011;27926;48.062;7.474;2022-09-20T06:48:57;8.23;;;1.73;;
42260;SDS011;27926;48.062;7.474;2022-09-20T06:51:23;2.92;;;2.03;;
42260;SDS011;27926;48.062;7.474;2022-09-20T06:53:50;3.72;;;2.10;;
42260;SDS011;27926;48.062;7.474;2022-09-20T06:56:16;7.03;;;2.95;;
42260;SDS011;27926;48.062;7.474;2022-09-20T06:58:43;6.10;;;2.67;;
42260;SDS011;27926;48.062;7.474;2022-09-20T07:01:08;13.13;;;2.83;;
42260;SDS011;27926;48.062;7.474;2022-09-20T07:03:32;5.75;;;2.03;;
42260;SDS011;27926;48.062;7.474;2022-09-20T07:05:57;3.78;;;1.83;;
42260;SDS011;27926;48.062;7.474;2022-09-20T07:08:27;6.85;;;2.60;;
42260;SDS011;27926;48.062;7.474;2022-09-20T07:10:51;7.05;;;2.03;;
42260;SDS011;27926;48.062;7.474;2022-09-20T07:13:17;14.00;;;2.15;;
42260;SDS011;27926;48.062;7.474;2022-09-20T07:15:43;6.82;;;2.50;;
42260;SDS011;27926;48.062;7.474;2022-09-20T07:18:08;5.80;;;2.40;;
42260;SDS011;27926;48.062;7.474;2022-09-20T07:20:33;7.57;;;2.67;;
42260;SDS011;27926;48.062;7.474;2022-09-20T07:22:57;8.57;;;2.67;;
42260;SDS011;27926;48.062;7.474;2022-09-20T07:25:23;9.43;;;3.65;;
42260;SDS011;27926;48.062;7.474;2022-09-20T07:27:48;6.50;;;2.20;;
42260;SDS011;27926;48.062;7.474;2022-09-20T07:30:13;9.57;;;2.65;;
42260;SDS011;27926;48.062;7.474;2022-09-20T07:32:39;17.57;;;2.70;;
42260;SDS011;27926;48.062;7.474;2022-09-20T07:35:04;8.07;;;2.13;;
42260;SDS011;27926;48.062;7.474;2022-09-20T07:37:29;7.40;;;2.40;;
42260;SDS011;27926;48.062;7.474;2022-09-20T07:39:53;5.50;;;1.85;;
42260;SDS011;27926;48.062;7.474;2022-09-20T07:42:18;10.25;;;2.75;;
42260;SDS011;27926;48.062;7.474;2022-09-20T07:44:43;9.90;;;2.70;;
42260;SDS011;27926;48.062;7.474;2022-09-20T07:47:09;8.93;;;2.55;;
42260;SDS011;27926;48.062;7.474;2022-09-20T07:49:34;12.27;;;2.63;;
42260;SDS011;27926;48.062;7.474;2022-09-20T07:51:59;13.52;;;2.70;;
42260;SDS011;27926;48.062;7.474;2022-09-20T07:54:23;10.02;;;2.67;;
42260;SDS011;27926;48.062;7.474;2022-09-20T07:56:50;7.35;;;2.42;;
42260;SDS011;27926;48.062;7.474;2022-09-20T07:59:15;8.50;;;2.45;;
42260;SDS011;27926;48.062;7.474;2022-09-20T08:01:40;8.75;;;2.00;;
42260;SDS011;27926;48.062;7.474;2022-09-20T08:04:05;11.00;;;2.13;;
42260;SDS011;27926;48.062;7.474;2022-09-20T08:06:32;12.32;;;2.30;;
42260;SDS011;27926;48.062;7.474;2022-09-20T08:08:59;7.07;;;1.95;;
42260;SDS011;27926;48.062;7.474;2022-09-20T08:11:24;8.00;;;1.98;;
42260;SDS011;27926;48.062;7.474;2022-09-20T08:13:52;9.00;;;2.40;;
42260;SDS011;27926;48.062;7.474;2022-09-20T08:16:17;11.10;;;2.45;;
42260;SDS011;27926;48.062;7.474;2022-09-20T08:18:44;12.80;;;2.10;;
42260;SDS011;27926;48.062;7.474;2022-09-20T08:21:10;7.55;;;1.67;;
42260;SDS011;27926;48.062;7.474;2022-09-20T08:23:39;5.57;;;1.50;;
42260;SDS011;27926;48.062;7.474;2022-09-20T08:26:06;5.53;;;1.50;;
42260;SDS011;27926;48.062;7.474;2022-09-20T08:28:35;4.93;;;1.75;;
42260;SDS011;27926;48.062;7.474;2022-09-20T08:31:00;4.95;;;1.60;;
42260;SDS011;27926;48.062;7.474;2022-09-20T08:33:29;9.45;;;1.50;;
42260;SDS011;27926;48.062;7.474;2022-09-20T08:35:54;4.97;;;1.30;;
42260;SDS011;27926;48.062;7.474;2022-09-20T08:38:19;7.10;;;1.38;;
42260;SDS011;27926;48.062;7.474;2022-09-20T08:40:45;4.60;;;1.42;;
42260;SDS011;27926;48.062;7.474;2022-09-20T08:43:12;9.18;;;1.42;;
42260;SDS011;27926;48.062;7.474;2022-09-20T08:45:37;7.32;;;1.65;;
42260;SDS011;27926;48.062;7.474;2022-09-20T08:48:04;4.35;;;1.30;;
42260;SDS011;27926;48.062;7.474;2022-09-20T08:50:35;11.27;;;1.65;;
42260;SDS011;27926;48.062;7.474;2022-09-20T08:53:00;7.45;;;1.67;;
42260;SDS011;27926;48.062;7.474;2022-09-20T08:55:29;5.13;;;1.70;;
42260;SDS011;27926;48.062;7.474;2022-09-20T08:57:55;10.38;;;1.42;;
42260;SDS011;27926;48.062;7.474;2022-09-20T09:00:22;7.13;;;1.60;;
42260;SDS011;27926;48.062;7.474;2022-09-20T09:02:56;5.82;;;1.45;;
42260;SDS011;27926;48.062;7.474;2022-09-20T09:05:34;9.07;;;1.60;;
42260;SDS011;27926;48.062;7.474;2022-09-20T09:08:14;10.05;;;1.83;;
42260;SDS011;27926;48.062;7.474;2022-09-20T09:10:55;7.00;;;1.50;;
42260;SDS011;27926;48.062;7.474;2022-09-20T09:16:54;9.82;;;1.80;;
42260;SDS011;27926;48.062;7.474;2022-09-20T09:19:26;5.55;;;1.77;;
42260;SDS011;27926;48.062;7.474;2022-09-20T09:21:59;5.18;;;1.55;;
42260;SDS011;27926;48.062;7.474;2022-09-20T09:24:26;3.65;;;1.35;;
42260;SDS011;27926;48.062;7.474;2022-09-20T09:27:03;6.18;;;1.38;;
42260;SDS011;27926;48.062;7.474;2022-09-20T09:29:49;7.10;;;1.30;;
42260;SDS011;27926;48.062;7.474;2022-09-20T09:32:26;6.35;;;1.83;;
42260;SDS011;27926;48.062;7.474;2022-09-20T09:34:54;7.95;;;1.70;;
42260;SDS011;27926;48.062;7.474;2022-09-20T09:42:48;8.45;;;1.50;;
42260;SDS011;27926;48.062;7.474;2022-09-20T09:45:34;7.25;;;1.55;;
42260;SDS011;27926;48.062;7.474;2022-09-20T09:48:16;4.20;;;1.30;;
42260;SDS011;27926;48.062;7.474;2022-09-20T09:51:07;5.93;;;1.05;;
42260;SDS011;27926;48.062;7.474;2022-09-20T09:53:39;4.88;;;1.13;;
42260;SDS011;27926;48.062;7.474;2022-09-20T10:01:33;9.88;;;0.90;;
42260;SDS011;27926;48.062;7.474;2022-09-20T10:06:49;4.57;;;1.75;;
42260;SDS011;27926;48.062;7.474;2022-09-20T10:09:29;4.68;;;0.80;;
42260;SDS011;27926;48.062;7.474;2022-09-20T10:12:19;5.65;;;1.05;;
42260;SDS011;27926;48.062;7.474;2022-09-20T10:26:02;3.67;;;0.93;;
42260;SDS011;27926;48.062;7.474;2022-09-20T10:34:08;3.65;;;0.82;;
42260;SDS011;27926;48.062;7.474;2022-09-20T10:36:58;7.70;;;0.93;;
42260;SDS011;27926;48.062;7.474;2022-09-20T10:39:30;0.77;;;0.52;;
42260;SDS011;27926;48.062;7.474;2022-09-20T10:59:15;2.35;;;0.50;;
42260;SDS011;27926;48.062;7.474;2022-09-20T11:05:19;7.90;;;1.17;;
42260;SDS011;27926;48.062;7.474;2022-09-20T11:13:18;2.50;;;0.73;;
42260;SDS011;27926;48.062;7.474;2022-09-20T11:16:09;3.75;;;0.93;;
42260;SDS011;27926;48.062;7.474;2022-09-20T11:18:45;6.18;;;1.83;;
42260;SDS011;27926;48.062;7.474;2022-09-20T11:21:24;3.00;;;1.00;;
42260;SDS011;27926;48.062;7.474;2022-09-20T11:26:28;5.03;;;0.90;;
42260;SDS011;27926;48.062;7.474;2022-09-20T11:29:07;7.05;;;1.23;;
42260;SDS011;27926;48.062;7.474;2022-09-20T11:31:42;1.48;;;0.68;;
42260;SDS011;27926;48.062;7.474;2022-09-20T11:34:15;2.75;;;0.95;;
42260;SDS011;27926;48.062;7.474;2022-09-20T11:36:52;4.70;;;0.70;;
42260;SDS011;27926;48.062;7.474;2022-09-20T11:39:26;4.38;;;0.68;;
42260;SDS011;27926;48.062;7.474;2022-09-20T11:42:10;5.60;;;0.77;;
42260;SDS011;27926;48.062;7.474;2022-09-20T11:44:58;2.60;;;0.88;;
42260;SDS011;27926;48.062;7.474;2022-09-20T11:47:24;6.45;;;1.20;;
42260;SDS011;27926;48.062;7.474;2022-09-20T11:50:22;4.03;;;0.77;;
42260;SDS011;27926;48.062;7.474;2022-09-20T11:58:20;0.70;;;0.50;;
42260;SDS011;27926;48.062;7.474;2022-09-20T12:00:45;3.58;;;0.65;;
42260;SDS011;27926;48.062;7.474;2022-09-20T12:03:24;1.75;;;0.30;;
42260;SDS011;27926;48.062;7.474;2022-09-20T12:06:00;1.60;;;0.20;;
42260;SDS011;27926;48.062;7.474;2022-09-20T12:08:31;1.25;;;0.38;;
42260;SDS011;27926;48.062;7.474;2022-09-20T12:11:06;1.10;;;0.57;;
42260;SDS011;27926;48.062;7.474;2022-09-20T12:13:34;5.57;;;0.70;;
42260;SDS011;27926;48.062;7.474;2022-09-20T12:16:14;1.58;;;0.32;;
42260;SDS011;27926;48.062;7.474;2022-09-20T12:23:42;2.47;;;0.32;;
42260;SDS011;27926;48.062;7.474;2022-09-20T12:33:57;2.83;;;0.75;;
42260;SDS011;27926;48.062;7.474;2022-09-20T12:36:29;1.95;;;0.57;;
42260;SDS011;27926;48.062;7.474;2022-09-20T12:39:02;2.05;;;0.82;;
42260;SDS011;27926;48.062;7.474;2022-09-20T13:00:38;1.67;;;0.50;;
42260;SDS011;27926;48.062;7.474;2022-09-20T13:05:43;0.52;;;0.30;;
42260;SDS011;27926;48.062;7.474;2022-09-20T13:08:22;4.28;;;0.57;;
42260;SDS011;27926;48.062;7.474;2022-09-20T13:11:06;3.42;;;0.68;;
42260;SDS011;27926;48.062;7.474;2022-09-20T13:13:49;4.22;;;0.38;;
42260;SDS011;27926;48.062;7.474;2022-09-20T13:16:21;2.47;;;0.50;;
42260;SDS011;27926;48.062;7.474;2022-09-20T13:18:49;0.75;;;0.40;;
42260;SDS011;27926;48.062;7.474;2022-09-20T13:21:24;1.00;;;0.30;;
42260;SDS011;27926;48.062;7.474;2022-09-20T13:23:50;3.85;;;0.40;;
42260;SDS011;27926;48.062;7.474;2022-09-20T13:26:19;3.67;;;0.50;;
42260;SDS011;27926;48.062;7.474;2022-09-20T13:28:51;1.95;;;0.40;;
42260;SDS011;27926;48.062;7.474;2022-09-20T13:31:22;1.90;;;0.50;;
42260;SDS011;27926;48.062;7.474;2022-09-20T13:33:47;1.45;;;0.50;;
42260;SDS011;27926;48.062;7.474;2022-09-20T13:36:12;0.70;;;0.30;;
42260;SDS011;27926;48.062;7.474;2022-09-20T13:38:37;1.58;;;0.65;;
42260;SDS011;27926;48.062;7.474;2022-09-20T13:41:03;1.35;;;0.45;;
42260;SDS011;27926;48.062;7.474;2022-09-20T13:43:35;3.47;;;0.82;;
42260;SDS011;27926;48.062;7.474;2022-09-20T13:48:33;1.65;;;0.47;;
42260;SDS011;27926;48.062;7.474;2022-09-20T13:50:57;2.58;;;0.70;;
42260;SDS011;27926;48.062;7.474;2022-09-20T13:53:23;3.05;;;0.45;;
42260;SDS011;27926;48.062;7.474;2022-09-20T13:55:49;4.68;;;0.82;;
42260;SDS011;27926;48.062;7.474;2022-09-20T13:58:16;2.63;;;0.68;;
42260;SDS011;27926;48.062;7.474;2022-09-20T14:00:52;2.45;;;0.70;;
42260;SDS011;27926;48.062;7.474;2022-09-20T14:03:17;2.30;;;0.60;;
42260;SDS011;27926;48.062;7.474;2022-09-20T14:05:45;1.50;;;0.52;;
42260;SDS011;27926;48.062;7.474;2022-09-20T14:11:25;1.25;;;0.30;;
42260;SDS011;27926;48.062;7.474;2022-09-20T14:13:56;2.28;;;0.40;;
42260;SDS011;27926;48.062;7.474;2022-09-20T14:16:28;1.58;;;0.60;;
42260;SDS011;27926;48.062;7.474;2022-09-20T14:18:57;3.35;;;0.57;;
42260;SDS011;27926;48.062;7.474;2022-09-20T14:21:26;6.63;;;0.65;;
42260;SDS011;27926;48.062;7.474;2022-09-20T14:23:58;0.90;;;0.40;;
42260;SDS011;27926;48.062;7.474;2022-09-20T14:28:56;10.85;;;0.75;;
42260;SDS011;27926;48.062;7.474;2022-09-20T14:32:01;0.50;;;0.47;;
42260;SDS011;27926;48.062;7.474;2022-09-20T14:34:59;2.40;;;0.68;;
42260;SDS011;27926;48.062;7.474;2022-09-20T14:37:51;6.43;;;0.50;;
42260;SDS011;27926;48.062;7.474;2022-09-20T14:42:53;8.98;;;0.73;;
42260;SDS011;27926;48.062;7.474;2022-09-20T14:45:23;2.92;;;1.02;;
42260;SDS011;27926;48.062;7.474;2022-09-20T14:52:59;0.73;;;0.30;;
42260;SDS011;27926;48.062;7.474;2022-09-20T14:55:37;2.83;;;0.85;;
42260;SDS011;27926;48.062;7.474;2022-09-20T14:58:05;3.42;;;0.47;;
42260;SDS011;27926;48.062;7.474;2022-09-20T15:00:49;2.42;;;0.52;;
42260;SDS011;27926;48.062;7.474;2022-09-20T15:03:15;3.63;;;0.55;;
42260;SDS011;27926;48.062;7.474;2022-09-20T15:05:46;5.13;;;0.52;;
42260;SDS011;27926;48.062;7.474;2022-09-20T15:08:12;0.50;;;0.43;;
42260;SDS011;27926;48.062;7.474;2022-09-20T15:10:38;1.35;;;0.40;;
42260;SDS011;27926;48.062;7.474;2022-09-20T15:13:03;2.22;;;0.63;;
42260;SDS011;27926;48.062;7.474;2022-09-20T15:15:27;6.30;;;0.80;;
42260;SDS011;27926;48.062;7.474;2022-09-20T15:17:52;1.30;;;0.40;;
42260;SDS011;27926;48.062;7.474;2022-09-20T15:20:19;1.67;;;0.38;;
42260;SDS011;27926;48.062;7.474;2022-09-20T15:22:44;3.30;;;0.63;;
42260;SDS011;27926;48.062;7.474;2022-09-20T15:25:13;4.97;;;0.68;;
42260;SDS011;27926;48.062;7.474;2022-09-20T15:27:39;1.95;;;0.50;;
42260;SDS011;27926;48.062;7.474;2022-09-20T15:30:07;3.22;;;0.80;;
42260;SDS011;27926;48.062;7.474;2022-09-20T15:32:33;5.95;;;0.93;;
42260;SDS011;27926;48.062;7.474;2022-09-20T15:34:59;0.93;;;0.40;;
42260;SDS011;27926;48.062;7.474;2022-09-20T15:37:23;0.75;;;0.43;;
42260;SDS011;27926;48.062;7.474;2022-09-20T15:39:48;4.82;;;0.73;;
42260;SDS011;27926;48.062;7.474;2022-09-20T15:42:15;2.50;;;1.05;;
42260;SDS011;27926;48.062;7.474;2022-09-20T15:44:44;1.92;;;0.55;;
42260;SDS011;27926;48.062;7.474;2022-09-20T15:47:09;5.07;;;0.93;;
42260;SDS011;27926;48.062;7.474;2022-09-20T15:52:01;2.50;;;0.70;;
42260;SDS011;27926;48.062;7.474;2022-09-20T15:54:26;5.23;;;0.67;;
42260;SDS011;27926;48.062;7.474;2022-09-20T15:56:51;1.40;;;0.60;;
42260;SDS011;27926;48.062;7.474;2022-09-20T15:59:17;3.75;;;0.50;;
42260;SDS011;27926;48.062;7.474;2022-09-20T16:01:46;3.17;;;0.68;;
42260;SDS011;27926;48.062;7.474;2022-09-20T16:04:13;5.25;;;0.73;;
42260;SDS011;27926;48.062;7.474;2022-09-20T16:06:41;6.22;;;1.05;;
42260;SDS011;27926;48.062;7.474;2022-09-20T16:09:07;1.98;;;0.85;;
42260;SDS011;27926;48.062;7.474;2022-09-20T16:11:33;9.43;;;1.58;;
42260;SDS011;27926;48.062;7.474;2022-09-20T16:13:59;5.82;;;1.55;;
42260;SDS011;27926;48.062;7.474;2022-09-20T16:16:24;4.10;;;1.15;;
42260;SDS011;27926;48.062;7.474;2022-09-20T16:18:51;4.55;;;1.08;;
42260;SDS011;27926;48.062;7.474;2022-09-20T16:21:35;3.20;;;1.42;;
42260;SDS011;27926;48.062;7.474;2022-09-20T16:24:02;3.92;;;1.10;;
42260;SDS011;27926;48.062;7.474;2022-09-20T16:26:28;6.00;;;1.17;;
42260;SDS011;27926;48.062;7.474;2022-09-20T16:28:55;6.95;;;1.60;;
42260;SDS011;27926;48.062;7.474;2022-09-20T16:31:27;5.30;;;0.80;;
42260;SDS011;27926;48.062;7.474;2022-09-20T16:36:37;3.83;;;0.77;;
42260;SDS011;27926;48.062;7.474;2022-09-20T16:39:05;6.43;;;0.68;;
42260;SDS011;27926;48.062;7.474;2022-09-20T16:43:55;2.55;;;0.85;;
42260;SDS011;27926;48.062;7.474;2022-09-20T16:46:20;4.43;;;0.60;;
42260;SDS011;27926;48.062;7.474;2022-09-20T16:48:50;3.38;;;0.65;;
42260;SDS011;27926;48.062;7.474;2022-09-20T16:51:16;1.00;;;0.50;;
42260;SDS011;27926;48.062;7.474;2022-09-20T16:53:41;2.95;;;0.75;;
42260;SDS011;27926;48.062;7.474;2022-09-20T16:56:06;4.22;;;0.60;;
42260;SDS011;27926;48.062;7.474;2022-09-20T16:58:40;6.75;;;0.93;;
42260;SDS011;27926;48.062;7.474;2022-09-20T17:01:07;3.80;;;0.90;;
42260;SDS011;27926;48.062;7.474;2022-09-20T17:24:06;2.60;;;0.68;;
42260;SDS011;27926;48.062;7.474;2022-09-20T17:26:37;2.47;;;0.90;;
42260;SDS011;27926;48.062;7.474;2022-09-20T17:29:04;2.22;;;0.80;;
42260;SDS011;27926;48.062;7.474;2022-09-20T17:31:41;8.63;;;1.33;;
42260;SDS011;27926;48.062;7.474;2022-09-20T17:34:09;7.05;;;1.20;;
42260;SDS011;27926;48.062;7.474;2022-09-20T17:36:40;10.43;;;1.10;;
42260;SDS011;27926;48.062;7.474;2022-09-20T17:39:06;2.60;;;0.80;;
42260;SDS011;27926;48.062;7.474;2022-09-20T17:41:35;2.58;;;0.77;;
42260;SDS011;27926;48.062;7.474;2022-09-20T17:44:00;11.10;;;1.10;;
42260;SDS011;27926;48.062;7.474;2022-09-20T17:46:31;6.88;;;2.08;;
42260;SDS011;27926;48.062;7.474;2022-09-20T17:48:56;4.43;;;1.42;;
42260;SDS011;27926;48.062;7.474;2022-09-20T17:51:24;4.18;;;1.02;;
42260;SDS011;27926;48.062;7.474;2022-09-20T17:53:50;3.45;;;1.25;;
42260;SDS011;27926;48.062;7.474;2022-09-20T17:56:16;11.95;;;1.60;;
42260;SDS011;27926;48.062;7.474;2022-09-20T17:58:41;10.55;;;2.25;;
42260;SDS011;27926;48.062;7.474;2022-09-20T18:01:06;5.65;;;1.77;;
42260;SDS011;27926;48.062;7.474;2022-09-20T18:03:37;6.82;;;1.63;;
42260;SDS011;27926;48.062;7.474;2022-09-20T18:06:13;11.18;;;4.35;;
42260;SDS011;27926;48.062;7.474;2022-09-20T18:08:46;11.10;;;4.65;;
42260;SDS011;27926;48.062;7.474;2022-09-20T18:11:13;6.47;;;3.13;;
42260;SDS011;27926;48.062;7.474;2022-09-20T18:13:38;12.63;;;3.40;;
42260;SDS011;27926;48.062;7.474;2022-09-20T18:16:06;4.47;;;2.20;;
42260;SDS011;27926;48.062;7.474;2022-09-20T18:18:32;3.85;;;2.30;;
42260;SDS011;27926;48.062;7.474;2022-09-20T18:20:56;13.23;;;3.28;;
42260;SDS011;27926;48.062;7.474;2022-09-20T18:23:21;7.43;;;2.55;;
42260;SDS011;27926;48.062;7.474;2022-09-20T18:25:46;8.23;;;2.67;;
42260;SDS011;27926;48.062;7.474;2022-09-20T18:28:29;10.05;;;3.20;;
42260;SDS011;27926;48.062;7.474;2022-09-20T18:30:58;4.60;;;2.22;;
42260;SDS011;27926;48.062;7.474;2022-09-20T18:33:24;8.23;;;1.77;;
42260;SDS011;27926;48.062;7.474;2022-09-20T18:35:49;4.95;;;1.85;;
42260;SDS011;27926;48.062;7.474;2022-09-20T18:38:13;6.38;;;1.80;;
42260;SDS011;27926;48.062;7.474;2022-09-20T18:40:40;7.07;;;2.25;;
42260;SDS011;27926;48.062;7.474;2022-09-20T18:43:06;16.63;;;2.38;;
42260;SDS011;27926;48.062;7.474;2022-09-20T18:45:31;2.33;;;1.45;;
42260;SDS011;27926;48.062;7.474;2022-09-20T18:47:56;2.95;;;1.58;;
42260;SDS011;27926;48.062;7.474;2022-09-20T18:52:49;3.20;;;1.17;;
42260;SDS011;27926;48.062;7.474;2022-09-20T18:55:14;5.68;;;1.50;;
42260;SDS011;27926;48.062;7.474;2022-09-20T18:57:39;5.18;;;1.95;;
42260;SDS011;27926;48.062;7.474;2022-09-20T19:00:04;11.57;;;2.38;;
42260;SDS011;27926;48.062;7.474;2022-09-20T19:05:52;5.57;;;2.00;;
42260;SDS011;27926;48.062;7.474;2022-09-20T19:08:33;50.92;;;4.47;;
42260;SDS011;27926;48.062;7.474;2022-09-20T19:11:10;25.08;;;2.90;;
42260;SDS011;27926;48.062;7.474;2022-09-20T19:13:47;14.63;;;2.30;;
42260;SDS011;27926;48.062;7.474;2022-09-20T19:16:32;9.20;;;2.58;;
42260;SDS011;27926;48.062;7.474;2022-09-20T19:19:05;6.10;;;2.80;;
42260;SDS011;27926;48.062;7.474;2022-09-20T19:27:07;5.63;;;2.17;;
42260;SDS011;27926;48.062;7.474;2022-09-20T19:29:35;5.68;;;2.13;;
42260;SDS011;27926;48.062;7.474;2022-09-20T19:32:00;9.37;;;1.97;;
42260;SDS011;27926;48.062;7.474;2022-09-20T19:34:26;8.50;;;2.10;;
42260;SDS011;27926;48.062;7.474;2022-09-20T19:36:58;5.00;;;2.45;;
42260;SDS011;27926;48.062;7.474;2022-09-20T19:42:51;18.58;;;2.08;;
42260;SDS011;27926;48.062;7.474;2022-09-20T19:45:50;9.95;;;1.60;;
42260;SDS011;27926;48.062;7.474;2022-09-20T19:48:37;6.70;;;2.15;;
42260;SDS011;27926;48.062;7.474;2022-09-20T19:51:04;6.60;;;2.00;;
42260;SDS011;27926;48.062;7.474;2022-09-20T19:53:33;5.60;;;1.95;;
42260;SDS011;27926;48.062;7.474;2022-09-20T19:58:48;5.25;;;1.95;;
42260;SDS011;27926;48.062;7.474;2022-09-20T20:01:16;4.82;;;1.73;;
42260;SDS011;27926;48.062;7.474;2022-09-20T20:03:40;8.70;;;2.03;;
42260;SDS011;27926;48.062;7.474;2022-09-20T20:08:54;6.80;;;2.38;;
42260;SDS011;27926;48.062;7.474;2022-09-20T20:11:49;17.83;;;2.17;;
42260;SDS011;27926;48.062;7.474;2022-09-20T20:17:27;8.73;;;2.17;;
42260;SDS011;27926;48.062;7.474;2022-09-20T20:20:30;6.50;;;2.17;;
42260;SDS011;27926;48.062;7.474;2022-09-20T20:25:49;6.78;;;1.27;;
42260;SDS011;27926;48.062;7.474;2022-09-20T20:28:22;5.20;;;1.45;;
42260;SDS011;27926;48.062;7.474;2022-09-20T20:30:47;5.95;;;1.40;;
42260;SDS011;27926;48.062;7.474;2022-09-20T20:33:12;4.03;;;1.75;;
42260;SDS011;27926;48.062;7.474;2022-09-20T20:35:38;10.50;;;1.40;;
42260;SDS011;27926;48.062;7.474;2022-09-20T20:38:03;17.27;;;1.75;;
42260;SDS011;27926;48.062;7.474;2022-09-20T20:40:34;4.43;;;1.40;;
42260;SDS011;27926;48.062;7.474;2022-09-20T20:42:59;8.52;;;2.13;;
42260;SDS011;27926;48.062;7.474;2022-09-20T20:45:24;3.73;;;1.57;;
42260;SDS011;27926;48.062;7.474;2022-09-20T20:47:54;4.72;;;1.80;;
42260;SDS011;27926;48.062;7.474;2022-09-20T20:50:19;7.90;;;2.10;;
42260;SDS011;27926;48.062;7.474;2022-09-20T20:52:44;8.23;;;1.98;;
42260;SDS011;27926;48.062;7.474;2022-09-20T20:55:14;5.95;;;1.55;;
42260;SDS011;27926;48.062;7.474;2022-09-20T20:57:38;3.05;;;1.58;;
42260;SDS011;27926;48.062;7.474;2022-09-20T21:00:03;16.90;;;1.75;;
42260;SDS011;27926;48.062;7.474;2022-09-20T21:02:28;11.35;;;2.00;;
42260;SDS011;27926;48.062;7.474;2022-09-20T21:04:53;4.97;;;1.85;;
42260;SDS011;27926;48.062;7.474;2022-09-20T21:07:17;2.55;;;1.48;;
42260;SDS011;27926;48.062;7.474;2022-09-20T21:09:42;7.22;;;2.70;;
42260;SDS011;27926;48.062;7.474;2022-09-20T21:12:06;7.65;;;1.98;;
42260;SDS011;27926;48.062;7.474;2022-09-20T21:14:32;15.10;;;1.90;;